createdAt,value
2017-10-06T00:00:06.580Z,993.96
2017-10-06T00:01:16.931Z,993.97
2017-10-06T00:02:27.279Z,993.9
2017-10-06T00:03:37.630Z,993.89
2017-10-06T00:04:48.048Z,993.96
2017-10-06T00:05:58.408Z,993.93
2017-10-06T00:07:08.440Z,993.93
2017-10-06T00:08:18.795Z,993.93
2017-10-06T00:09:29.137Z,993.91
2017-10-06T00:10:39.172Z,993.9
2017-10-06T00:11:49.526Z,993.96
2017-10-06T00:12:59.892Z,993.99
2017-10-06T00:14:10.239Z,993.97
2017-10-06T00:15:20.272Z,994.01
2017-10-06T00:16:30.632Z,994.03
2017-10-06T00:17:40.978Z,993.99
2017-10-06T00:18:51.324Z,994.03
2017-10-06T00:20:01.680Z,994.05
2017-10-06T00:21:12.029Z,994.01
2017-10-06T00:22:21.745Z,994.01
2017-10-06T00:23:32.094Z,994.07
2017-10-06T00:24:42.124Z,994.02
2017-10-06T00:25:52.472Z,994.04
2017-10-06T00:27:02.825Z,994.02
2017-10-06T00:28:13.183Z,994.08
2017-10-06T00:29:23.531Z,994.06
2017-10-06T00:30:32.924Z,994.07
2017-10-06T00:31:42.970Z,994.11
2017-10-06T00:32:53.013Z,994.12
2017-10-06T00:34:03.353Z,994.19
2017-10-06T00:35:13.875Z,994.17
2017-10-06T00:36:24.217Z,994.2
2017-10-06T00:37:33.939Z,994.2
2017-10-06T00:38:43.958Z,994.28
2017-10-06T00:39:54.039Z,994.17
2017-10-06T00:41:04.397Z,994.2
2017-10-06T00:42:14.749Z,994.19
2017-10-06T00:43:25.121Z,994.25
2017-10-06T00:44:35.485Z,994.26
2017-10-06T00:45:45.538Z,994.22
2017-10-06T00:46:55.880Z,994.35
2017-10-06T00:48:06.225Z,994.27
2017-10-06T00:49:16.261Z,994.29
2017-10-06T00:50:25.976Z,994.39
2017-10-06T00:51:36.337Z,994.35
2017-10-06T00:52:46.681Z,994.33
2017-10-06T00:53:56.715Z,994.33
2017-10-06T00:55:07.077Z,994.28
2017-10-06T00:56:17.420Z,994.33
2017-10-06T00:57:27.819Z,994.28
2017-10-06T00:58:38.195Z,994.31
2017-10-06T00:59:48.214Z,994.3
2017-10-06T01:00:58.263Z,994.24
2017-10-06T01:02:08.620Z,994.31
2017-10-06T01:03:18.655Z,994.31
2017-10-06T01:04:29.003Z,994.28
2017-10-06T01:05:39.338Z,994.26
2017-10-06T01:06:49.375Z,994.27
2017-10-06T01:07:59.764Z,994.3
2017-10-06T01:09:10.112Z,994.32
2017-10-06T01:10:20.468Z,994.36
2017-10-06T01:11:30.511Z,994.34
2017-10-06T01:12:40.547Z,994.39
2017-10-06T01:13:50.563Z,994.45
2017-10-06T01:15:00.951Z,994.44
2017-10-06T01:16:10.985Z,994.47
2017-10-06T01:17:20.695Z,994.48
2017-10-06T01:18:30.731Z,994.51
2017-10-06T01:19:40.744Z,994.52
2017-10-06T01:20:51.146Z,994.51
2017-10-06T01:22:01.502Z,994.57
2017-10-06T01:23:11.848Z,994.58
2017-10-06T01:24:21.883Z,994.56
2017-10-06T01:25:31.589Z,994.53
2017-10-06T01:26:41.936Z,994.52
2017-10-06T01:27:51.958Z,994.49
2017-10-06T01:29:01.708Z,994.49
2017-10-06T01:30:12.064Z,994.47
2017-10-06T01:31:22.421Z,994.49
2017-10-06T01:32:32.761Z,994.52
2017-10-06T01:33:43.118Z,994.44
2017-10-06T01:34:53.162Z,994.51
2017-10-06T01:36:03.510Z,994.5
2017-10-06T01:37:13.239Z,994.45
2017-10-06T01:38:23.276Z,994.49
2017-10-06T01:39:33.303Z,994.48
2017-10-06T01:40:43.650Z,994.55
2017-10-06T01:41:53.682Z,994.53
2017-10-06T01:43:04.031Z,994.53
2017-10-06T01:44:14.448Z,994.5
2017-10-06T01:45:24.151Z,994.54
2017-10-06T01:46:34.480Z,994.54
2017-10-06T01:47:44.551Z,994.52
2017-10-06T01:48:54.903Z,994.55
2017-10-06T01:50:05.244Z,994.57
2017-10-06T01:51:15.595Z,994.53
2017-10-06T01:52:25.942Z,994.55
2017-10-06T01:53:36.298Z,994.54
2017-10-06T01:54:46.336Z,994.52
2017-10-06T01:55:56.372Z,994.52
2017-10-06T01:57:06.727Z,994.47
2017-10-06T01:58:17.080Z,994.47
2017-10-06T01:59:27.133Z,994.47
2017-10-06T02:00:37.482Z,994.46
2017-10-06T02:01:48.645Z,994.43
2017-10-06T02:02:58.992Z,994.41
2017-10-06T02:04:09.014Z,994.41
2017-10-06T02:05:19.057Z,994.39
2017-10-06T02:06:29.402Z,994.37
2017-10-06T02:07:39.795Z,994.38
2017-10-06T02:08:50.188Z,994.4
2017-10-06T02:10:00.544Z,994.4
2017-10-06T02:11:10.913Z,994.45
2017-10-06T02:12:21.261Z,994.39
2017-10-06T02:13:31.610Z,994.42
2017-10-06T02:14:41.964Z,994.41
2017-10-06T02:15:52.302Z,994.39
2017-10-06T02:17:02.640Z,994.41
2017-10-06T02:18:12.997Z,994.43
2017-10-06T02:19:23.023Z,994.43
2017-10-06T02:20:33.373Z,994.4
2017-10-06T02:21:43.426Z,994.36
2017-10-06T02:22:53.779Z,994.4
2017-10-06T02:24:04.135Z,994.38
2017-10-06T02:25:14.211Z,994.37
2017-10-06T02:26:24.259Z,994.34
2017-10-06T02:27:34.617Z,994.41
2017-10-06T02:28:44.968Z,994.4
2017-10-06T02:29:55.315Z,994.41
2017-10-06T02:31:05.724Z,994.4
2017-10-06T02:32:16.064Z,994.4
2017-10-06T02:33:26.426Z,994.43
2017-10-06T02:34:36.777Z,994.45
2017-10-06T02:35:46.801Z,994.44
2017-10-06T02:36:57.212Z,994.45
2017-10-06T02:38:07.568Z,994.46
2017-10-06T02:39:17.638Z,994.45
2017-10-06T02:40:27.988Z,994.46
2017-10-06T02:41:38.335Z,994.42
2017-10-06T02:42:48.738Z,994.43
2017-10-06T02:43:59.094Z,994.42
2017-10-06T02:45:09.126Z,994.42
2017-10-06T02:46:19.473Z,994.42
2017-10-06T02:47:29.825Z,994.35
2017-10-06T02:48:41.108Z,994.34
2017-10-06T02:49:51.166Z,994.33
2017-10-06T02:51:01.524Z,994.3
2017-10-06T02:52:11.877Z,994.27
2017-10-06T02:53:21.916Z,994.23
2017-10-06T02:54:32.318Z,994.24
2017-10-06T02:55:42.664Z,994.2
2017-10-06T02:56:52.709Z,994.26
2017-10-06T02:58:03.053Z,994.23
2017-10-06T02:59:13.402Z,994.21
2017-10-06T03:00:23.754Z,994.25
2017-10-06T03:01:34.096Z,994.3
2017-10-06T03:33:22.834Z,994.18
2017-10-06T03:34:33.162Z,994.19
2017-10-06T03:35:43.517Z,994.19
2017-10-06T03:36:53.851Z,994.23
2017-10-06T03:38:04.182Z,994.22
2017-10-06T03:39:14.517Z,994.2
2017-10-06T03:40:24.896Z,994.21
2017-10-06T03:41:35.258Z,994.2
2017-10-06T03:42:45.603Z,994.16
2017-10-06T03:43:55.957Z,994.13
2017-10-06T03:45:06.409Z,994.16
2017-10-06T03:46:16.758Z,994.15
2017-10-06T03:47:26.773Z,994.14
2017-10-06T03:48:37.133Z,994.19
2017-10-06T03:49:47.488Z,994.2
2017-10-06T03:50:57.894Z,994.19
2017-10-06T03:52:08.230Z,994.25
2017-10-06T03:53:18.575Z,994.22
2017-10-06T03:54:28.606Z,994.27
2017-10-06T03:55:38.976Z,994.29
2017-10-06T03:56:49.323Z,994.26
2017-10-06T03:57:59.682Z,994.23
2017-10-06T03:59:10.037Z,994.24
2017-10-06T04:00:20.395Z,994.25
2017-10-06T04:01:30.453Z,994.26
2017-10-06T04:02:40.854Z,994.2
2017-10-06T04:03:50.886Z,994.24
2017-10-06T04:05:01.246Z,994.19
2017-10-06T04:06:11.282Z,994.22
2017-10-06T04:07:21.620Z,994.22
2017-10-06T04:08:31.984Z,994.26
2017-10-06T04:09:42.356Z,994.25
2017-10-06T04:10:52.702Z,994.28
2017-10-06T04:12:02.735Z,994.31
2017-10-06T04:13:13.089Z,994.34
2017-10-06T04:14:23.447Z,994.31
2017-10-06T04:15:33.474Z,994.27
2017-10-06T04:16:43.515Z,994.29
2017-10-06T04:17:53.541Z,994.26
2017-10-06T04:19:03.902Z,994.29
2017-10-06T04:20:13.972Z,994.24
2017-10-06T04:21:24.322Z,994.25
2017-10-06T04:22:34.672Z,994.28
2017-10-06T04:23:45.034Z,994.27
2017-10-06T04:24:55.381Z,994.24
2017-10-06T04:26:05.803Z,994.27
2017-10-06T04:27:15.828Z,994.26
2017-10-06T04:28:26.188Z,994.2
2017-10-06T04:29:36.524Z,994.24
2017-10-06T04:30:46.281Z,994.26
2017-10-06T04:31:56.700Z,994.23
2017-10-06T04:33:07.071Z,994.25
2017-10-06T04:34:17.114Z,994.28
2017-10-06T04:35:27.466Z,994.23
2017-10-06T04:36:37.500Z,994.26
2017-10-06T04:37:47.830Z,994.31
2017-10-06T04:38:58.174Z,994.35
2017-10-06T04:40:08.539Z,994.29
2017-10-06T04:41:18.878Z,994.28
2017-10-06T04:42:29.286Z,994.32
2017-10-06T04:43:39.327Z,994.26
2017-10-06T04:44:49.693Z,994.31
2017-10-06T04:45:59.775Z,994.26
2017-10-06T04:47:09.808Z,994.23
2017-10-06T04:48:20.162Z,994.29
2017-10-06T04:49:30.526Z,994.19
2017-10-06T04:50:40.890Z,994.22
2017-10-06T04:51:51.241Z,994.14
2017-10-06T04:53:01.598Z,994.16
2017-10-06T04:54:11.954Z,994.19
2017-10-06T04:55:22.302Z,994.19
2017-10-06T04:56:32.658Z,994.15
2017-10-06T04:57:42.687Z,994.18
2017-10-06T04:58:53.067Z,994.13
2017-10-06T05:00:03.458Z,994.16
2017-10-06T05:01:13.866Z,994.13
2017-10-06T05:02:23.571Z,994.19
2017-10-06T05:03:33.919Z,994.16
2017-10-06T05:04:43.941Z,994.14
2017-10-06T05:05:53.984Z,994.14
2017-10-06T05:07:04.330Z,994.12
2017-10-06T05:08:14.681Z,994.11
2017-10-06T05:09:24.723Z,994.1
2017-10-06T05:10:34.750Z,994.1
2017-10-06T05:11:45.098Z,994.08
2017-10-06T05:12:55.459Z,994.1
2017-10-06T05:14:05.800Z,994.14
2017-10-06T05:15:16.163Z,994.09
2017-10-06T05:16:26.508Z,994.09
2017-10-06T05:17:36.890Z,994.08
2017-10-06T05:18:47.258Z,994.07
2017-10-06T05:19:57.636Z,994.08
2017-10-06T05:21:08.011Z,994.07
2017-10-06T05:22:18.357Z,994.1
2017-10-06T05:23:28.394Z,994.17
2017-10-06T05:24:38.751Z,994.16
2017-10-06T05:25:49.099Z,994.17
2017-10-06T05:26:59.462Z,994.19
2017-10-06T05:28:09.821Z,994.22
2017-10-06T05:29:20.169Z,994.22
2017-10-06T05:30:30.522Z,994.22
2017-10-06T05:31:40.902Z,994.22
2017-10-06T05:32:50.929Z,994.28
2017-10-06T05:34:00.970Z,994.27
2017-10-06T05:35:11.311Z,994.22
2017-10-06T05:36:21.348Z,994.22
2017-10-06T05:37:31.713Z,994.16
2017-10-06T05:38:42.043Z,994.16
2017-10-06T05:39:52.438Z,994.19
2017-10-06T05:41:02.796Z,994.1
2017-10-06T05:42:12.843Z,994.24
2017-10-06T05:43:23.227Z,994.1
2017-10-06T05:44:33.576Z,994.13
2017-10-06T05:45:43.612Z,994.16
2017-10-06T05:46:53.641Z,994.15
2017-10-06T05:48:04.031Z,994.15
2017-10-06T05:49:14.385Z,994.19
2017-10-06T05:50:24.765Z,994.14
2017-10-06T05:51:34.818Z,994.22
2017-10-06T05:52:45.175Z,994.16
2017-10-06T05:53:55.217Z,994.06
2017-10-06T05:55:05.586Z,994.12
2017-10-06T05:56:15.974Z,994.12
2017-10-06T05:57:26.011Z,994.16
2017-10-06T05:58:36.369Z,994.16
2017-10-06T05:59:46.766Z,994.14
2017-10-06T06:00:56.783Z,994.17
2017-10-06T06:02:07.148Z,994.25
2017-10-06T06:03:17.176Z,994.23
2017-10-06T06:04:27.532Z,994.27
2017-10-06T06:05:37.568Z,994.23
2017-10-06T06:06:47.939Z,994.23
2017-10-06T06:07:58.271Z,994.21
2017-10-06T06:09:08.319Z,994.25
2017-10-06T06:10:18.669Z,994.23
2017-10-06T06:11:28.806Z,994.3
2017-10-06T06:12:39.172Z,994.3
2017-10-06T06:13:49.526Z,994.36
2017-10-06T06:14:59.871Z,994.35
2017-10-06T06:16:10.220Z,994.3
2017-10-06T06:17:20.580Z,994.34
2017-10-06T06:18:30.607Z,994.34
2017-10-06T06:19:40.963Z,994.26
2017-10-06T06:20:51.325Z,994.35
2017-10-06T06:22:01.693Z,994.36
2017-10-06T06:23:11.737Z,994.4
2017-10-06T06:24:21.758Z,994.38
2017-10-06T06:25:32.149Z,994.44
2017-10-06T06:26:42.190Z,994.43
2017-10-06T06:27:52.595Z,994.47
2017-10-06T06:29:02.619Z,994.56
2017-10-06T06:30:12.978Z,994.49
2017-10-06T06:31:23.339Z,994.47
2017-10-06T06:32:33.694Z,994.46
2017-10-06T06:33:44.050Z,994.6
2017-10-06T06:34:53.767Z,994.59
2017-10-06T06:36:04.104Z,994.62
2017-10-06T06:37:14.155Z,994.66
2017-10-06T06:38:24.502Z,994.65
2017-10-06T06:39:34.840Z,994.65
2017-10-06T06:40:45.182Z,994.7
2017-10-06T06:41:54.907Z,994.68
2017-10-06T06:43:05.277Z,994.75
2017-10-06T06:44:15.007Z,994.78
2017-10-06T06:45:25.039Z,994.81
2017-10-06T06:46:35.392Z,994.79
2017-10-06T06:47:45.737Z,994.88
2017-10-06T06:48:56.118Z,994.79
2017-10-06T06:50:06.132Z,994.84
2017-10-06T06:51:16.174Z,994.89
2017-10-06T06:52:26.516Z,994.89
2017-10-06T06:53:36.880Z,994.89
2017-10-06T06:54:47.234Z,994.92
2017-10-06T06:55:57.609Z,994.9
2017-10-06T06:57:07.958Z,994.85
2017-10-06T06:58:18.303Z,994.85
2017-10-06T06:59:28.649Z,994.85
2017-10-06T07:00:38.672Z,994.97
2017-10-06T07:01:49.042Z,994.93
2017-10-06T07:02:58.434Z,994.92
2017-10-06T07:04:08.776Z,994.86
2017-10-06T07:05:18.813Z,994.93
2017-10-06T07:06:28.836Z,994.93
2017-10-06T07:07:39.189Z,994.98
2017-10-06T07:08:49.617Z,994.83
2017-10-06T07:09:59.977Z,994.96
2017-10-06T07:11:10.008Z,994.94
2017-10-06T07:12:20.050Z,994.9
2017-10-06T07:13:30.081Z,994.93
2017-10-06T07:14:40.452Z,994.94
2017-10-06T07:15:50.812Z,994.93
2017-10-06T07:17:00.857Z,995.04
2017-10-06T07:18:11.214Z,995
2017-10-06T07:19:21.568Z,994.86
2017-10-06T07:20:31.933Z,995.04
2017-10-06T07:21:42.023Z,994.97
2017-10-06T07:22:52.365Z,994.94
2017-10-06T07:24:02.390Z,994.93
2017-10-06T07:25:12.803Z,994.93
2017-10-06T07:26:23.155Z,994.89
2017-10-06T07:27:33.662Z,994.97
2017-10-06T07:28:44.026Z,994.88
2017-10-06T07:29:54.362Z,994.9
2017-10-06T07:31:04.727Z,994.84
2017-10-06T07:32:15.076Z,994.92
2017-10-06T07:33:25.428Z,994.89
2017-10-06T07:34:35.778Z,994.96
2017-10-06T07:35:45.510Z,994.99
2017-10-06T07:36:55.846Z,994.99
2017-10-06T07:38:06.195Z,994.89
2017-10-06T07:39:16.541Z,995.03
2017-10-06T07:40:26.565Z,995.06
2017-10-06T07:41:36.921Z,995.04
2017-10-06T07:42:47.290Z,995.03
2017-10-06T07:43:57.341Z,995.03
2017-10-06T07:45:07.699Z,995.06
2017-10-06T07:46:18.041Z,995.05
2017-10-06T07:47:28.082Z,995.08
2017-10-06T07:48:37.792Z,995
2017-10-06T07:49:48.187Z,995.1
2017-10-06T07:50:58.535Z,995.09
2017-10-06T07:52:09.125Z,995.14
2017-10-06T07:53:19.494Z,995.13
2017-10-06T07:54:29.842Z,995.2
2017-10-06T07:55:40.243Z,995.07
2017-10-06T07:56:50.590Z,995.19
2017-10-06T07:58:00.938Z,995.1
2017-10-06T07:59:10.972Z,995.14
2017-10-06T08:00:21.326Z,995.17
2017-10-06T08:01:31.384Z,995.23
2017-10-06T08:02:41.729Z,995.22
2017-10-06T08:03:52.088Z,995.18
2017-10-06T08:05:02.456Z,995.22
2017-10-06T08:06:12.480Z,995.26
2017-10-06T08:07:22.533Z,995.12
2017-10-06T08:08:32.583Z,995.11
2017-10-06T08:09:42.940Z,995.09
2017-10-06T08:10:53.278Z,995.26
2017-10-06T08:12:03.319Z,995.16
2017-10-06T08:13:13.082Z,995.18
2017-10-06T08:14:23.453Z,995.26
2017-10-06T08:15:33.809Z,995.37
2017-10-06T08:16:43.841Z,995.24
2017-10-06T08:17:53.866Z,995.18
2017-10-06T08:19:03.899Z,995.21
2017-10-06T08:20:13.927Z,995.33
2017-10-06T08:21:24.293Z,995.14
2017-10-06T08:22:34.646Z,995.19
2017-10-06T08:23:45.016Z,995.15
2017-10-06T08:24:55.410Z,995.2
2017-10-06T08:26:05.449Z,995.21
2017-10-06T08:27:15.466Z,995.28
2017-10-06T08:28:25.499Z,995.28
2017-10-06T08:29:35.547Z,995.25
2017-10-06T08:30:46.347Z,995.24
2017-10-06T08:31:56.385Z,995.17
2017-10-06T08:33:06.895Z,995.19
2017-10-06T08:34:17.271Z,995.2
2017-10-06T08:35:27.329Z,995.2
2017-10-06T08:36:37.747Z,995.17
2017-10-06T08:37:48.126Z,995.12
2017-10-06T08:38:58.499Z,995.19
2017-10-06T08:40:08.853Z,995.11
2017-10-06T08:41:19.210Z,995.17
2017-10-06T08:42:29.256Z,995.05
2017-10-06T08:43:39.621Z,995.04
2017-10-06T08:44:49.668Z,995.01
2017-10-06T08:46:00.030Z,995.03
2017-10-06T08:47:10.083Z,994.99
2017-10-06T08:48:20.136Z,994.93
2017-10-06T08:49:30.508Z,995
2017-10-06T08:50:40.861Z,995.04
2017-10-06T08:51:51.230Z,995
2017-10-06T08:53:01.583Z,994.97
2017-10-06T08:54:11.942Z,995.03
2017-10-06T08:55:21.999Z,994.96
2017-10-06T08:56:32.038Z,994.95
2017-10-06T08:57:42.063Z,995.07
2017-10-06T08:58:52.431Z,995.04
2017-10-06T09:00:02.827Z,994.99
2017-10-06T09:01:12.887Z,995.05
2017-10-06T09:02:23.239Z,995.08
2017-10-06T09:03:33.588Z,995.14
2017-10-06T09:04:43.957Z,995.09
2017-10-06T09:05:54.357Z,995.14
2017-10-06T09:07:04.087Z,995.08
2017-10-06T09:08:14.132Z,995.11
2017-10-06T09:09:24.507Z,995.09
2017-10-06T09:10:34.861Z,995.1
2017-10-06T09:11:44.948Z,995.12
2017-10-06T09:12:55.302Z,995.18
2017-10-06T09:14:05.653Z,995.14
2017-10-06T09:15:15.700Z,995.16
2017-10-06T09:16:26.051Z,995.09
2017-10-06T09:17:36.410Z,995.14
2017-10-06T09:18:46.762Z,995.16
2017-10-06T09:19:57.106Z,995.08
2017-10-06T09:21:07.143Z,995.11
2017-10-06T09:22:17.498Z,995.11
2017-10-06T09:23:27.617Z,995.18
2017-10-06T09:24:37.669Z,995.17
2017-10-06T09:25:48.041Z,995.13
2017-10-06T09:26:58.415Z,995.23
2017-10-06T09:28:08.815Z,995.11
2017-10-06T09:29:19.197Z,995.14
2017-10-06T09:30:28.927Z,995.23
2017-10-06T09:31:38.955Z,995.11
2017-10-06T09:32:49.317Z,995.15
2017-10-06T09:34:00.224Z,995.2
2017-10-06T09:35:10.580Z,995.17
2017-10-06T09:36:20.621Z,995.26
2017-10-06T09:37:31.046Z,995.29
2017-10-06T09:38:41.421Z,995.33
2017-10-06T09:39:51.957Z,995.4
2017-10-06T09:41:05.443Z,995.38
2017-10-06T09:42:15.486Z,995.41
2017-10-06T09:43:25.527Z,995.45
2017-10-06T09:44:35.578Z,995.46
2017-10-06T09:45:45.961Z,995.55
2017-10-06T09:46:55.997Z,995.46
2017-10-06T09:48:06.389Z,995.45
2017-10-06T09:49:16.741Z,995.42
2017-10-06T09:50:27.116Z,995.41
2017-10-06T09:51:37.509Z,995.43
2017-10-06T09:52:47.553Z,995.47
2017-10-06T09:53:57.612Z,995.49
2017-10-06T09:55:07.987Z,995.52
2017-10-06T09:56:18.346Z,995.47
2017-10-06T09:57:28.729Z,995.48
2017-10-06T09:58:39.137Z,995.53
2017-10-06T09:59:50.048Z,995.55
2017-10-06T10:01:00.524Z,995.52
2017-10-06T10:02:10.995Z,995.51
2017-10-06T10:03:21.036Z,995.61
2017-10-06T10:04:31.393Z,995.57
2017-10-06T10:05:41.761Z,995.54
2017-10-06T10:06:51.794Z,995.55
2017-10-06T10:08:02.185Z,995.49
2017-10-06T10:09:12.545Z,995.54
2017-10-06T10:10:22.954Z,995.55
2017-10-06T10:11:33.336Z,995.57
2017-10-06T10:12:43.400Z,995.58
2017-10-06T10:13:53.479Z,995.62
2017-10-06T10:15:03.888Z,995.61
2017-10-06T10:16:14.977Z,995.58
2017-10-06T10:17:26.261Z,995.6
2017-10-06T10:18:36.622Z,995.58
2017-10-06T10:19:46.747Z,995.57
2017-10-06T10:20:57.141Z,995.57
2017-10-06T10:22:07.572Z,995.56
2017-10-06T10:23:17.921Z,995.62
2017-10-06T10:24:28.285Z,995.59
2017-10-06T10:25:38.658Z,995.62
2017-10-06T10:26:49.035Z,995.61
2017-10-06T10:27:59.423Z,995.6
2017-10-06T10:29:09.780Z,995.58
2017-10-06T10:30:20.146Z,995.61
2017-10-06T10:31:30.510Z,995.65
2017-10-06T10:32:40.241Z,995.6
2017-10-06T10:33:50.286Z,995.56
2017-10-06T10:35:00.648Z,995.6
2017-10-06T10:36:10.680Z,995.69
2017-10-06T10:37:20.731Z,995.64
2017-10-06T10:38:31.088Z,995.68
2017-10-06T10:39:41.142Z,995.67
2017-10-06T10:40:51.518Z,995.7
2017-10-06T10:42:01.876Z,995.72
2017-10-06T10:43:12.237Z,995.69
2017-10-06T10:44:22.594Z,995.74
2017-10-06T10:45:33.032Z,995.73
2017-10-06T10:46:43.063Z,995.75
2017-10-06T10:47:53.426Z,995.76
2017-10-06T10:49:03.799Z,995.72
2017-10-06T10:50:13.844Z,995.72
2017-10-06T10:51:23.935Z,995.74
2017-10-06T10:52:34.297Z,995.76
2017-10-06T10:53:44.658Z,995.77
2017-10-06T10:54:54.706Z,995.78
2017-10-06T10:56:05.088Z,995.73
2017-10-06T10:57:15.497Z,995.8
2017-10-06T10:58:25.856Z,995.77
2017-10-06T10:59:36.215Z,995.77
2017-10-06T11:00:46.603Z,995.8
2017-10-06T11:01:56.979Z,995.79
2017-10-06T11:03:07.352Z,995.84
2017-10-06T11:04:17.723Z,995.83
2017-10-06T11:05:28.097Z,995.74
2017-10-06T11:06:38.142Z,995.81
2017-10-06T11:07:48.501Z,995.8
2017-10-06T11:08:58.556Z,995.77
2017-10-06T11:10:08.923Z,995.85
2017-10-06T11:11:19.289Z,995.79
2017-10-06T11:12:29.667Z,995.82
2017-10-06T11:13:39.730Z,995.77
2017-10-06T11:14:50.131Z,995.8
2017-10-06T11:16:00.526Z,995.81
2017-10-06T11:17:10.905Z,995.75
2017-10-06T11:18:21.259Z,995.81
2017-10-06T11:19:30.997Z,995.81
2017-10-06T11:20:41.906Z,995.78
2017-10-06T11:21:51.957Z,995.79
2017-10-06T11:23:02.374Z,995.82
2017-10-06T11:24:12.750Z,995.81
2017-10-06T11:25:23.140Z,995.77
2017-10-06T11:26:33.523Z,995.84
2017-10-06T11:27:43.943Z,995.84
2017-10-06T11:28:54.376Z,995.92
2017-10-06T11:30:04.769Z,995.95
2017-10-06T11:31:14.819Z,995.92
2017-10-06T11:32:24.935Z,995.92
2017-10-06T11:33:34.997Z,995.87
2017-10-06T11:34:45.515Z,995.89
2017-10-06T11:35:55.905Z,995.98
2017-10-06T11:37:06.278Z,995.99
2017-10-06T11:38:16.648Z,996.03
2017-10-06T11:39:27.030Z,996.02
2017-10-06T11:40:37.465Z,996.02
2017-10-06T11:41:47.860Z,996.02
2017-10-06T11:42:58.344Z,996.04
2017-10-06T11:44:08.398Z,995.97
2017-10-06T11:45:18.779Z,996
2017-10-06T11:46:28.851Z,995.99
2017-10-06T11:47:38.929Z,995.95
2017-10-06T11:48:49.349Z,995.93
2017-10-06T11:49:59.757Z,995.96
2017-10-06T11:51:10.124Z,995.94
2017-10-06T11:52:20.199Z,995.9
2017-10-06T11:53:30.576Z,995.94
2017-10-06T11:54:40.937Z,995.9
2017-10-06T11:55:50.991Z,995.94
2017-10-06T11:57:01.095Z,995.92
2017-10-06T11:58:11.122Z,995.9
2017-10-06T11:59:21.524Z,995.91
2017-10-06T12:00:31.626Z,995.87
2017-10-06T12:01:41.992Z,995.85
2017-10-06T12:02:52.393Z,995.87
2017-10-06T12:04:02.495Z,995.86
2017-10-06T12:05:12.915Z,995.81
2017-10-06T12:06:23.011Z,995.84
2017-10-06T12:07:33.395Z,995.85
2017-10-06T12:08:43.777Z,995.87
2017-10-06T12:09:54.164Z,995.86
2017-10-06T12:11:04.557Z,995.85
2017-10-06T12:12:14.947Z,995.9
2017-10-06T12:13:25.018Z,995.91
2017-10-06T12:14:35.391Z,995.94
2017-10-06T12:15:45.779Z,996.03
2017-10-06T12:16:55.843Z,995.93
2017-10-06T12:18:06.218Z,995.97
2017-10-06T12:19:16.913Z,996.02
2017-10-06T12:20:27.303Z,996.13
2017-10-06T12:21:37.673Z,996.09
2017-10-06T12:22:48.062Z,996.04
2017-10-06T12:23:58.594Z,996.01
2017-10-06T12:25:08.991Z,996.07
2017-10-06T12:26:19.350Z,996.03
2017-10-06T12:27:29.175Z,996.07
2017-10-06T12:28:39.576Z,996.08
2017-10-06T12:29:49.844Z,996.07
2017-10-06T12:31:00.247Z,996.18
2017-10-06T12:32:10.328Z,996.15
2017-10-06T12:33:20.388Z,996.23
2017-10-06T12:34:30.785Z,996.25
2017-10-06T12:35:40.845Z,996.37
2017-10-06T12:36:50.929Z,996.44
2017-10-06T12:38:01.333Z,996.48
2017-10-06T12:39:12.096Z,996.5
2017-10-06T12:40:27.085Z,996.41
2017-10-06T12:41:43.018Z,996.43
2017-10-06T12:42:57.359Z,996.4
2017-10-06T12:44:11.746Z,996.42
2017-10-06T12:45:27.272Z,996.4
2017-10-06T12:46:42.579Z,996.37
2017-10-06T12:47:56.829Z,996.38
2017-10-06T12:49:07.188Z,996.42
2017-10-06T12:50:17.544Z,996.36
2017-10-06T12:51:27.575Z,996.36
2017-10-06T12:52:38.017Z,996.27
2017-10-06T12:53:48.388Z,996.25
2017-10-06T12:54:58.432Z,996.24
2017-10-06T12:56:09.682Z,996.27
2017-10-06T12:57:19.715Z,996.33
2017-10-06T12:58:29.760Z,996.32
2017-10-06T12:59:40.133Z,996.31
2017-10-06T13:00:50.494Z,996.37
2017-10-06T13:02:00.867Z,996.4
2017-10-06T13:03:11.272Z,996.29
2017-10-06T13:04:21.635Z,996.24
2017-10-06T13:05:32.028Z,996.17
2017-10-06T13:06:42.397Z,996.17
2017-10-06T13:07:52.762Z,996.17
2017-10-06T13:09:03.119Z,996.16
2017-10-06T13:10:13.509Z,996.28
2017-10-06T13:11:24.327Z,996.32
2017-10-06T13:12:34.070Z,996.38
2017-10-06T13:13:44.125Z,996.34
2017-10-06T13:14:54.192Z,996.27
2017-10-06T13:16:04.613Z,996.25
2017-10-06T13:17:14.979Z,996.28
2017-10-06T13:18:25.016Z,996.22
2017-10-06T13:19:35.398Z,996.23
2017-10-06T13:20:45.745Z,996.27
2017-10-06T13:21:56.108Z,996.26
2017-10-06T13:23:06.148Z,996.32
2017-10-06T13:24:16.519Z,996.35
2017-10-06T13:25:26.560Z,996.27
2017-10-06T13:26:36.916Z,996.32
2017-10-06T13:27:47.272Z,996.27
2017-10-06T13:28:57.640Z,996.2
2017-10-06T13:30:08.028Z,996.2
2017-10-06T13:31:18.388Z,996.13
2017-10-06T13:32:28.102Z,996.1
2017-10-06T13:33:38.496Z,996.1
2017-10-06T13:34:48.563Z,996.07
2017-10-06T13:35:58.926Z,996.03
2017-10-06T13:37:09.296Z,995.98
2017-10-06T13:38:19.650Z,995.96
2017-10-06T13:39:29.748Z,995.86
2017-10-06T13:40:40.108Z,995.79
2017-10-06T13:41:50.165Z,995.79
2017-10-06T13:43:00.193Z,995.8
2017-10-06T13:44:10.553Z,995.73
2017-10-06T13:45:20.937Z,995.74
2017-10-06T13:46:31.305Z,995.63
2017-10-06T13:47:41.688Z,995.63
2017-10-06T13:48:52.045Z,995.6
2017-10-06T13:50:02.416Z,995.63
2017-10-06T13:51:12.855Z,995.61
2017-10-06T13:52:23.212Z,995.59
2017-10-06T13:53:33.568Z,995.59
2017-10-06T13:54:43.656Z,995.62
2017-10-06T13:55:54.082Z,995.59
2017-10-06T13:57:04.557Z,995.62
2017-10-06T13:58:15.004Z,995.61
2017-10-06T13:59:25.434Z,995.64
2017-10-06T14:00:35.160Z,995.57
2017-10-06T14:01:45.517Z,995.53
2017-10-06T14:02:55.895Z,995.49
2017-10-06T14:04:06.259Z,995.49
2017-10-06T14:05:16.298Z,995.5
2017-10-06T14:06:26.337Z,995.5
2017-10-06T14:07:36.699Z,995.5
2017-10-06T14:08:46.804Z,995.51
2017-10-06T14:09:56.842Z,995.52
2017-10-06T14:11:07.198Z,995.49
2017-10-06T14:12:17.551Z,995.51
2017-10-06T14:13:27.895Z,995.52
2017-10-06T14:14:37.925Z,995.45
2017-10-06T14:15:48.298Z,995.49
2017-10-06T14:16:58.652Z,995.46
2017-10-06T14:18:09.003Z,995.46
2017-10-06T14:19:19.593Z,995.45
2017-10-06T14:20:29.699Z,995.54
2017-10-06T14:21:39.418Z,995.5
2017-10-06T14:22:49.876Z,995.41
2017-10-06T14:24:00.249Z,995.47
2017-10-06T14:25:11.158Z,995.46
2017-10-06T14:26:21.808Z,995.46
2017-10-06T14:27:32.182Z,995.45
2017-10-06T14:28:42.569Z,995.5
2017-10-06T14:29:52.934Z,995.44
2017-10-06T14:31:03.022Z,995.5
2017-10-06T14:32:13.447Z,995.47
2017-10-06T14:33:23.811Z,995.42
2017-10-06T14:34:34.185Z,995.43
2017-10-06T14:35:44.561Z,995.39
2017-10-06T14:36:54.942Z,995.38
2017-10-06T14:38:05.370Z,995.42
2017-10-06T14:39:15.737Z,995.41
2017-10-06T14:40:26.107Z,995.43
2017-10-06T14:41:36.472Z,995.37
2017-10-06T14:42:46.853Z,995.42
2017-10-06T14:43:56.962Z,995.44
2017-10-06T14:45:07.324Z,995.41
2017-10-06T14:46:17.720Z,995.4
2017-10-06T14:47:28.091Z,995.43
2017-10-06T14:48:38.469Z,995.45
2017-10-06T14:49:48.901Z,995.44
2017-10-06T14:50:59.280Z,995.42
2017-10-06T14:52:09.666Z,995.37
2017-10-06T14:53:20.052Z,995.44
2017-10-06T14:54:30.427Z,995.4
2017-10-06T14:55:40.837Z,995.36
2017-10-06T14:56:51.223Z,995.37
2017-10-06T14:58:01.596Z,995.25
2017-10-06T14:59:11.636Z,995.21
2017-10-06T15:00:22.007Z,995.16
2017-10-06T15:01:32.442Z,995.18
2017-10-06T15:02:42.488Z,995.25
2017-10-06T15:03:52.837Z,995.2
2017-10-06T15:05:03.203Z,995.23
2017-10-06T15:06:13.567Z,995.16
2017-10-06T15:07:23.635Z,995.33
2017-10-06T15:08:34.012Z,995.27
2017-10-06T15:09:44.062Z,995.27
2017-10-06T15:10:54.463Z,995.32